This is the latest recevied weather packets stored in our database for station/object N5WAY-13. If no packets are shown the sender has not sent any weather packets the latest 10 day(s).
| Time | Temp. | Humidity | Pressure | Rain* | Wind** | Luminosity | Snow |
|---|---|---|---|---|---|---|---|
| 1778235017 | 10° C | 26% | 1015.9 hPa | 0 mm | - | 0 W/m² | - |
| 1778230218 | 10.56° C | 25% | 1015.8 hPa | 0 mm | - | 0 W/m² | - |
| 1778224815 | 12.22° C | 23% | 1016.4 hPa | 0 mm | - | 0 W/m² | - |
| 1778217617 | 13.89° C | 19% | 1016 hPa | 0 mm | - | 0 W/m² | - |
| 1778216418 | 15° C | 18% | 1016 hPa | 0 mm | - | 0 W/m² | - |
| 1778210416 | 17.22° C | 14% | 1015.3 hPa | 0 mm | - | 0 W/m² | - |
| 1778208017 | 20° C | 12% | 1014.8 hPa | 0 mm | - | 0 W/m² | - |
| 1778203818 | 22.78° C | 10% | 1014 hPa | 0 mm | - | 24 W/m² | - |
| 1778203218 | 23.33° C | 10% | 1014 hPa | 0 mm | - | 29 W/m² | - |
| 1778193617 | 24.44° C | 11% | 1014.5 hPa | 0 mm | - | 659 W/m² | - |
| 1778191817 | 24.44° C | 14% | 1014.9 hPa | 0 mm | - | 778 W/m² | - |
| 1778188818 | 22.78° C | 13% | 1015.8 hPa | 0 mm | - | 928 W/m² | - |
| 1778185816 | 21.67° C | 17% | 1016.8 hPa | 0 mm | - | 1038 W/m² | - |
| 1778184616 | 21.11° C | 18% | 1017.2 hPa | 0 mm | - | 1069 W/m² | - |
| 1778176817 | 16.67° C | 26% | 1019.5 hPa | 0 mm | - | 1060 W/m² | - |
| 1778174415 | 15° C | 30% | 1020.2 hPa | 0 mm | - | 989 W/m² | - |
| 1778165417 | 8.33° C | 58% | 1021.6 hPa | 0 mm | - | 490 W/m² | - |
| 1778164838 | 8.33° C | 60% | 1021.7 hPa | 0 mm | - | 450 W/m² | - |
| 1778161215 | 6.11° C | 65% | 1022 hPa | 0 mm | - | 44 W/m² | - |
| 1778160016 | 5.56° C | 61% | 1021.7 hPa | 0 mm | - | 39 W/m² | - |
| 1778158256 | 4.44° C | 68% | 1021.6 hPa | 0 mm | - | 27 W/m² | - |
| 1778154017 | 3.89° C | 68% | 1021.2 hPa | 0 mm | - | 0 W/m² | - |
| 1778149815 | 5.56° C | 54% | 1021.1 hPa | 0 mm | - | 0 W/m² | - |
| 1778146856 | 5.56° C | 40% | 1020.9 hPa | 0 mm | - | 0 W/m² | - |
| 1778142617 | 6.67° C | 37% | 1020.6 hPa | 0 mm | - | 0 W/m² | - |
* Rain latest hour (hover to see other rain measurements)
** Current wind speed in m/s (hover to see current wind gust speed)